sensor_id;sensor_type;location;lat;lon;timestamp;noise_LAeq;noise_LA_min;noise_LA_max;noise_LA01;noise_LA95
71034;Laerm;58847;52.378;4.740;2022-08-05T00:00:03;35.94;33.70;38.19;;
71034;Laerm;58847;52.378;4.740;2022-08-05T00:00:15;36.68;33.75;40.26;;
71034;Laerm;58847;52.378;4.740;2022-08-05T00:00:30;36.94;34.24;41.71;;
71034;Laerm;58847;52.378;4.740;2022-08-05T00:00:50;36.76;33.90;41.96;;
71034;Laerm;58847;52.378;4.740;2022-08-05T00:01:15;38.15;35.22;42.49;;
71034;Laerm;58847;52.378;4.740;2022-08-05T00:01:30;37.34;34.94;40.64;;
71034;Laerm;58847;52.378;4.740;2022-08-05T00:01:47;36.70;33.89;41.02;;
71034;Laerm;58847;52.378;4.740;2022-08-05T00:02:03;38.02;34.48;44.49;;
71034;Laerm;58847;52.378;4.740;2022-08-05T00:02:16;38.75;35.59;42.94;;
71034;Laerm;58847;52.378;4.740;2022-08-05T00:02:28;38.05;35.12;40.67;;
71034;Laerm;58847;52.378;4.740;2022-08-05T00:02:40;37.41;34.70;40.64;;
71034;Laerm;58847;52.378;4.740;2022-08-05T00:02:54;37.44;35.10;41.23;;
71034;Laerm;58847;52.378;4.740;2022-08-05T00:03:06;37.96;35.08;40.71;;
71034;Laerm;58847;52.378;4.740;2022-08-05T00:03:18;39.08;37.40;41.91;;
71034;Laerm;58847;52.378;4.740;2022-08-05T00:03:31;37.86;35.13;44.74;;
71034;Laerm;58847;52.378;4.740;2022-08-05T00:03:44;38.69;35.85;41.98;;
71034;Laerm;58847;52.378;4.740;2022-08-05T00:03:56;37.81;34.92;41.34;;
71034;Laerm;58847;52.378;4.740;2022-08-05T00:04:07;37.64;35.62;40.80;;
71034;Laerm;58847;52.378;4.740;2022-08-05T00:04:19;37.02;34.72;41.79;;
71034;Laerm;58847;52.378;4.740;2022-08-05T00:04:30;37.56;34.13;41.02;;
71034;Laerm;58847;52.378;4.740;2022-08-05T00:04:41;38.61;35.08;43.42;;
71034;Laerm;58847;52.378;4.740;2022-08-05T00:04:52;37.32;33.75;41.03;;
71034;Laerm;58847;52.378;4.740;2022-08-05T00:05:04;38.53;35.65;41.90;;
71034;Laerm;58847;52.378;4.740;2022-08-05T00:05:15;38.13;34.76;41.96;;
71034;Laerm;58847;52.378;4.740;2022-08-05T00:05:26;37.67;35.34;39.82;;
71034;Laerm;58847;52.378;4.740;2022-08-05T00:05:39;36.92;34.38;40.03;;
71034;Laerm;58847;52.378;4.740;2022-08-05T00:05:53;36.65;34.43;40.73;;
71034;Laerm;58847;52.378;4.740;2022-08-05T00:06:03;36.36;34.32;42.26;;
71034;Laerm;58847;52.378;4.740;2022-08-05T00:06:15;36.47;34.75;38.84;;
71034;Laerm;58847;52.378;4.740;2022-08-05T00:06:27;35.83;33.91;38.68;;
71034;Laerm;58847;52.378;4.740;2022-08-05T00:06:38;35.73;33.38;39.66;;
71034;Laerm;58847;52.378;4.740;2022-08-05T00:06:49;35.86;33.79;41.12;;
71034;Laerm;58847;52.378;4.740;2022-08-05T00:06:59;36.07;33.25;40.22;;
71034;Laerm;58847;52.378;4.740;2022-08-05T00:07:10;36.72;33.84;40.22;;
71034;Laerm;58847;52.378;4.740;2022-08-05T00:07:22;36.65;34.25;40.86;;
71034;Laerm;58847;52.378;4.740;2022-08-05T00:07:32;36.24;34.20;38.61;;
71034;Laerm;58847;52.378;4.740;2022-08-05T00:07:43;36.41;33.92;40.48;;
71034;Laerm;58847;52.378;4.740;2022-08-05T00:07:54;36.34;33.90;39.05;;
71034;Laerm;58847;52.378;4.740;2022-08-05T00:08:04;37.53;34.78;43.37;;
71034;Laerm;58847;52.378;4.740;2022-08-05T00:08:15;36.73;34.85;39.58;;
71034;Laerm;58847;52.378;4.740;2022-08-05T00:08:26;36.40;34.38;41.67;;
71034;Laerm;58847;52.378;4.740;2022-08-05T00:08:36;36.59;34.28;39.02;;
71034;Laerm;58847;52.378;4.740;2022-08-05T00:08:47;37.12;35.11;39.51;;
71034;Laerm;58847;52.378;4.740;2022-08-05T00:08:58;36.79;34.08;40.26;;
71034;Laerm;58847;52.378;4.740;2022-08-05T00:09:09;37.45;35.31;41.51;;
71034;Laerm;58847;52.378;4.740;2022-08-05T00:09:20;37.46;35.87;40.87;;
71034;Laerm;58847;52.378;4.740;2022-08-05T00:09:31;37.19;35.51;39.76;;
71034;Laerm;58847;52.378;4.740;2022-08-05T00:09:41;36.98;35.16;39.30;;
71034;Laerm;58847;52.378;4.740;2022-08-05T00:09:52;36.69;34.59;39.08;;
71034;Laerm;58847;52.378;4.740;2022-08-05T00:10:03;37.58;35.44;41.29;;
71034;Laerm;58847;52.378;4.740;2022-08-05T00:10:14;38.38;36.35;40.61;;
71034;Laerm;58847;52.378;4.740;2022-08-05T00:10:24;37.20;35.02;40.23;;
71034;Laerm;58847;52.378;4.740;2022-08-05T00:10:35;36.49;34.93;38.87;;
71034;Laerm;58847;52.378;4.740;2022-08-05T00:10:45;38.27;35.77;42.22;;
71034;Laerm;58847;52.378;4.740;2022-08-05T00:10:56;37.48;35.32;41.67;;
71034;Laerm;58847;52.378;4.740;2022-08-05T00:11:13;36.48;34.62;42.16;;
71034;Laerm;58847;52.378;4.740;2022-08-05T00:11:24;37.01;34.34;39.56;;
71034;Laerm;58847;52.378;4.740;2022-08-05T00:11:35;36.84;34.65;40.09;;
71034;Laerm;58847;52.378;4.740;2022-08-05T00:11:46;37.33;34.31;40.47;;
71034;Laerm;58847;52.378;4.740;2022-08-05T00:11:56;37.40;35.24;41.04;;
71034;Laerm;58847;52.378;4.740;2022-08-05T00:12:07;36.61;34.14;41.99;;
71034;Laerm;58847;52.378;4.740;2022-08-05T00:12:17;37.09;34.44;39.54;;
71034;Laerm;58847;52.378;4.740;2022-08-05T00:12:28;36.12;34.09;40.88;;
71034;Laerm;58847;52.378;4.740;2022-08-05T00:12:38;36.38;34.02;40.74;;
71034;Laerm;58847;52.378;4.740;2022-08-05T00:12:49;36.80;34.25;41.04;;
71034;Laerm;58847;52.378;4.740;2022-08-05T00:12:59;37.24;34.98;40.12;;
71034;Laerm;58847;52.378;4.740;2022-08-05T00:13:09;36.90;35.21;39.54;;
71034;Laerm;58847;52.378;4.740;2022-08-05T00:13:19;37.09;34.72;42.75;;
71034;Laerm;58847;52.378;4.740;2022-08-05T00:13:34;36.70;34.39;39.23;;
71034;Laerm;58847;52.378;4.740;2022-08-05T00:13:45;36.16;34.00;38.94;;
71034;Laerm;58847;52.378;4.740;2022-08-05T00:13:55;36.82;35.01;41.94;;
71034;Laerm;58847;52.378;4.740;2022-08-05T00:14:06;38.70;36.35;42.05;;
71034;Laerm;58847;52.378;4.740;2022-08-05T00:14:16;38.22;36.15;42.60;;
71034;Laerm;58847;52.378;4.740;2022-08-05T00:14:27;37.89;35.53;40.12;;
71034;Laerm;58847;52.378;4.740;2022-08-05T00:14:37;37.30;35.03;41.11;;
71034;Laerm;58847;52.378;4.740;2022-08-05T00:14:47;38.66;36.96;42.15;;
71034;Laerm;58847;52.378;4.740;2022-08-05T00:14:57;38.91;36.42;43.06;;
71034;Laerm;58847;52.378;4.740;2022-08-05T00:15:08;37.38;34.73;39.46;;
71034;Laerm;58847;52.378;4.740;2022-08-05T00:15:18;37.12;34.01;40.18;;
71034;Laerm;58847;52.378;4.740;2022-08-05T00:15:29;37.78;34.83;40.25;;
71034;Laerm;58847;52.378;4.740;2022-08-05T00:15:39;37.22;34.21;44.12;;
71034;Laerm;58847;52.378;4.740;2022-08-05T00:15:52;36.91;34.98;41.27;;
71034;Laerm;58847;52.378;4.740;2022-08-05T00:16:03;36.34;33.79;40.35;;
71034;Laerm;58847;52.378;4.740;2022-08-05T00:16:14;35.53;33.83;39.58;;
71034;Laerm;58847;52.378;4.740;2022-08-05T00:16:24;35.64;33.63;38.48;;
71034;Laerm;58847;52.378;4.740;2022-08-05T00:16:34;35.56;33.36;42.30;;
71034;Laerm;58847;52.378;4.740;2022-08-05T00:16:44;35.50;32.59;39.44;;
71034;Laerm;58847;52.378;4.740;2022-08-05T00:16:55;35.90;33.14;38.68;;
71034;Laerm;58847;52.378;4.740;2022-08-05T00:17:05;35.93;33.85;38.76;;
71034;Laerm;58847;52.378;4.740;2022-08-05T00:17:15;35.66;33.51;38.21;;
71034;Laerm;58847;52.378;4.740;2022-08-05T00:17:25;36.21;33.36;40.27;;
71034;Laerm;58847;52.378;4.740;2022-08-05T00:17:36;36.43;34.02;44.36;;
71034;Laerm;58847;52.378;4.740;2022-08-05T00:17:46;36.33;33.28;41.90;;
71034;Laerm;58847;52.378;4.740;2022-08-05T00:17:56;36.27;33.60;45.83;;
71034;Laerm;58847;52.378;4.740;2022-08-05T00:18:06;35.92;33.16;39.14;;
71034;Laerm;58847;52.378;4.740;2022-08-05T00:18:16;35.95;33.73;38.44;;
71034;Laerm;58847;52.378;4.740;2022-08-05T00:18:27;36.30;33.20;39.11;;
71034;Laerm;58847;52.378;4.740;2022-08-05T00:18:37;37.49;33.53;42.07;;
71034;Laerm;58847;52.378;4.740;2022-08-05T00:18:48;36.86;33.95;40.14;;
71034;Laerm;58847;52.378;4.740;2022-08-05T00:18:59;37.82;34.68;41.03;;
71034;Laerm;58847;52.378;4.740;2022-08-05T00:19:09;40.33;36.21;44.66;;
71034;Laerm;58847;52.378;4.740;2022-08-05T00:19:22;50.33;40.23;59.27;;
71034;Laerm;58847;52.378;4.740;2022-08-05T00:19:32;53.21;47.04;58.39;;
71034;Laerm;58847;52.378;4.740;2022-08-05T00:19:43;50.91;45.12;54.57;;
71034;Laerm;58847;52.378;4.740;2022-08-05T00:19:53;47.40;40.93;53.39;;
71034;Laerm;58847;52.378;4.740;2022-08-05T00:20:03;42.69;37.50;48.59;;
71034;Laerm;58847;52.378;4.740;2022-08-05T00:20:14;38.88;35.04;42.16;;
71034;Laerm;58847;52.378;4.740;2022-08-05T00:20:24;38.53;35.16;42.38;;
71034;Laerm;58847;52.378;4.740;2022-08-05T00:20:34;37.24;34.93;43.01;;
71034;Laerm;58847;52.378;4.740;2022-08-05T00:20:44;37.24;35.18;39.45;;
71034;Laerm;58847;52.378;4.740;2022-08-05T00:20:55;36.52;34.07;40.31;;
71034;Laerm;58847;52.378;4.740;2022-08-05T00:21:05;36.70;34.73;40.44;;
71034;Laerm;58847;52.378;4.740;2022-08-05T00:21:16;36.91;34.45;40.79;;
71034;Laerm;58847;52.378;4.740;2022-08-05T00:21:27;37.30;34.72;41.33;;
71034;Laerm;58847;52.378;4.740;2022-08-05T00:21:38;37.20;35.19;40.03;;
71034;Laerm;58847;52.378;4.740;2022-08-05T00:21:48;37.15;34.90;40.37;;
71034;Laerm;58847;52.378;4.740;2022-08-05T00:21:59;37.19;35.24;39.18;;
71034;Laerm;58847;52.378;4.740;2022-08-05T00:22:09;37.71;35.59;42.06;;
71034;Laerm;58847;52.378;4.740;2022-08-05T00:22:20;37.48;35.39;39.48;;
71034;Laerm;58847;52.378;4.740;2022-08-05T00:22:30;36.45;34.00;39.53;;
71034;Laerm;58847;52.378;4.740;2022-08-05T00:22:41;36.96;34.79;40.56;;
71034;Laerm;58847;52.378;4.740;2022-08-05T00:22:51;36.78;34.66;39.24;;
71034;Laerm;58847;52.378;4.740;2022-08-05T00:23:02;35.96;33.69;39.01;;
71034;Laerm;58847;52.378;4.740;2022-08-05T00:23:12;37.59;35.22;43.33;;
71034;Laerm;58847;52.378;4.740;2022-08-05T00:23:22;36.23;33.90;39.30;;
71034;Laerm;58847;52.378;4.740;2022-08-05T00:23:33;36.77;34.51;41.74;;
71034;Laerm;58847;52.378;4.740;2022-08-05T00:23:44;36.49;34.51;38.51;;
71034;Laerm;58847;52.378;4.740;2022-08-05T00:23:55;36.18;33.87;45.44;;
71034;Laerm;58847;52.378;4.740;2022-08-05T00:24:06;35.52;33.15;39.21;;
71034;Laerm;58847;52.378;4.740;2022-08-05T00:24:16;35.55;32.89;40.20;;
71034;Laerm;58847;52.378;4.740;2022-08-05T00:24:27;35.61;33.33;39.37;;
71034;Laerm;58847;52.378;4.740;2022-08-05T00:24:37;35.66;32.66;44.39;;
71034;Laerm;58847;52.378;4.740;2022-08-05T00:24:47;35.13;32.16;39.28;;
71034;Laerm;58847;52.378;4.740;2022-08-05T00:24:58;35.59;32.42;42.87;;
71034;Laerm;58847;52.378;4.740;2022-08-05T00:25:08;35.51;33.04;40.13;;
71034;Laerm;58847;52.378;4.740;2022-08-05T00:25:19;35.87;33.27;40.16;;
71034;Laerm;58847;52.378;4.740;2022-08-05T00:25:29;36.41;33.70;42.99;;
71034;Laerm;58847;52.378;4.740;2022-08-05T00:25:40;36.94;33.89;40.58;;
71034;Laerm;58847;52.378;4.740;2022-08-05T00:25:50;36.61;34.61;39.79;;
71034;Laerm;58847;52.378;4.740;2022-08-05T00:26:01;36.66;33.91;39.44;;
71034;Laerm;58847;52.378;4.740;2022-08-05T00:26:12;37.34;35.01;42.81;;
71034;Laerm;58847;52.378;4.740;2022-08-05T00:26:23;37.74;34.62;42.70;;
71034;Laerm;58847;52.378;4.740;2022-08-05T00:26:33;37.90;35.30;41.40;;
71034;Laerm;58847;52.378;4.740;2022-08-05T00:26:44;39.28;37.45;42.28;;
71034;Laerm;58847;52.378;4.740;2022-08-05T00:26:55;39.00;36.01;42.15;;
71034;Laerm;58847;52.378;4.740;2022-08-05T00:27:05;39.34;37.32;48.02;;
71034;Laerm;58847;52.378;4.740;2022-08-05T00:27:16;39.48;37.43;41.83;;
71034;Laerm;58847;52.378;4.740;2022-08-05T00:27:27;37.99;35.80;40.08;;
71034;Laerm;58847;52.378;4.740;2022-08-05T00:27:40;37.27;35.43;40.37;;
71034;Laerm;58847;52.378;4.740;2022-08-05T00:27:51;37.28;35.17;40.49;;
71034;Laerm;58847;52.378;4.740;2022-08-05T00:28:02;37.40;35.08;41.25;;
71034;Laerm;58847;52.378;4.740;2022-08-05T00:28:13;37.38;34.45;42.77;;
71034;Laerm;58847;52.378;4.740;2022-08-05T00:28:24;37.17;34.31;41.95;;
71034;Laerm;58847;52.378;4.740;2022-08-05T00:28:36;37.29;34.09;40.41;;
71034;Laerm;58847;52.378;4.740;2022-08-05T00:28:48;36.02;33.69;39.41;;
71034;Laerm;58847;52.378;4.740;2022-08-05T00:28:58;35.57;33.45;39.46;;
71034;Laerm;58847;52.378;4.740;2022-08-05T00:29:09;36.01;33.20;48.74;;
71034;Laerm;58847;52.378;4.740;2022-08-05T00:29:20;35.72;33.47;38.93;;
71034;Laerm;58847;52.378;4.740;2022-08-05T00:29:31;36.15;33.61;39.42;;
71034;Laerm;58847;52.378;4.740;2022-08-05T00:29:42;36.63;34.71;40.17;;
71034;Laerm;58847;52.378;4.740;2022-08-05T00:29:52;37.96;35.10;40.58;;
71034;Laerm;58847;52.378;4.740;2022-08-05T00:30:03;38.47;36.53;41.52;;
71034;Laerm;58847;52.378;4.740;2022-08-05T00:30:14;37.35;34.83;39.92;;
71034;Laerm;58847;52.378;4.740;2022-08-05T00:30:24;39.14;36.00;41.80;;
71034;Laerm;58847;52.378;4.740;2022-08-05T00:30:34;39.32;36.98;41.65;;
71034;Laerm;58847;52.378;4.740;2022-08-05T00:30:45;38.63;36.53;41.14;;
71034;Laerm;58847;52.378;4.740;2022-08-05T00:30:55;38.27;36.30;40.46;;
71034;Laerm;58847;52.378;4.740;2022-08-05T00:31:05;37.94;36.35;40.35;;
71034;Laerm;58847;52.378;4.740;2022-08-05T00:31:15;37.43;35.59;39.37;;
71034;Laerm;58847;52.378;4.740;2022-08-05T00:31:26;37.04;34.91;40.98;;
71034;Laerm;58847;52.378;4.740;2022-08-05T00:31:36;37.04;34.97;39.25;;
71034;Laerm;58847;52.378;4.740;2022-08-05T00:31:46;36.65;34.31;41.41;;
71034;Laerm;58847;52.378;4.740;2022-08-05T00:31:57;36.87;34.18;42.07;;
71034;Laerm;58847;52.378;4.740;2022-08-05T00:32:07;36.39;34.11;39.77;;
71034;Laerm;58847;52.378;4.740;2022-08-05T00:32:21;36.39;34.25;42.34;;
71034;Laerm;58847;52.378;4.740;2022-08-05T00:32:31;36.15;33.96;43.00;;
71034;Laerm;58847;52.378;4.740;2022-08-05T00:32:42;36.84;34.15;40.23;;
71034;Laerm;58847;52.378;4.740;2022-08-05T00:32:52;37.55;35.34;41.07;;
71034;Laerm;58847;52.378;4.740;2022-08-05T00:33:02;37.22;35.12;41.13;;
71034;Laerm;58847;52.378;4.740;2022-08-05T00:33:14;36.71;34.64;40.04;;
71034;Laerm;58847;52.378;4.740;2022-08-05T00:33:25;36.39;34.34;40.20;;
71034;Laerm;58847;52.378;4.740;2022-08-05T00:33:35;36.08;34.15;39.34;;
71034;Laerm;58847;52.378;4.740;2022-08-05T00:33:45;37.50;34.54;40.43;;
71034;Laerm;58847;52.378;4.740;2022-08-05T00:33:56;36.99;34.44;40.24;;
71034;Laerm;58847;52.378;4.740;2022-08-05T00:34:06;36.37;33.72;39.84;;
71034;Laerm;58847;52.378;4.740;2022-08-05T00:34:16;37.39;34.94;40.15;;
71034;Laerm;58847;52.378;4.740;2022-08-05T00:34:26;36.76;34.11;41.49;;
71034;Laerm;58847;52.378;4.740;2022-08-05T00:34:38;36.77;34.06;41.00;;
71034;Laerm;58847;52.378;4.740;2022-08-05T00:34:48;37.62;35.00;41.98;;
71034;Laerm;58847;52.378;4.740;2022-08-05T00:34:58;37.47;34.85;40.24;;
71034;Laerm;58847;52.378;4.740;2022-08-05T00:35:08;37.64;34.02;41.87;;
71034;Laerm;58847;52.378;4.740;2022-08-05T00:35:18;36.30;33.78;41.68;;
71034;Laerm;58847;52.378;4.740;2022-08-05T00:35:29;35.64;33.19;39.84;;
71034;Laerm;58847;52.378;4.740;2022-08-05T00:35:39;35.61;32.50;38.08;;
71034;Laerm;58847;52.378;4.740;2022-08-05T00:35:49;35.99;33.36;39.81;;
71034;Laerm;58847;52.378;4.740;2022-08-05T00:35:59;36.25;33.74;39.63;;
71034;Laerm;58847;52.378;4.740;2022-08-05T00:36:10;36.26;33.46;40.87;;
71034;Laerm;58847;52.378;4.740;2022-08-05T00:36:21;36.17;33.94;38.33;;
71034;Laerm;58847;52.378;4.740;2022-08-05T00:36:33;38.56;35.22;45.79;;
71034;Laerm;58847;52.378;4.740;2022-08-05T00:36:44;38.25;35.67;41.82;;
71034;Laerm;58847;52.378;4.740;2022-08-05T00:36:55;37.09;34.25;39.70;;
71034;Laerm;58847;52.378;4.740;2022-08-05T00:37:06;36.54;34.16;38.92;;
71034;Laerm;58847;52.378;4.740;2022-08-05T00:37:16;37.25;34.21;40.93;;
71034;Laerm;58847;52.378;4.740;2022-08-05T00:37:27;37.34;34.84;42.83;;
71034;Laerm;58847;52.378;4.740;2022-08-05T00:37:37;38.36;35.74;41.41;;
71034;Laerm;58847;52.378;4.740;2022-08-05T00:37:48;37.80;35.47;40.77;;
71034;Laerm;58847;52.378;4.740;2022-08-05T00:37:58;39.08;35.47;41.82;;
71034;Laerm;58847;52.378;4.740;2022-08-05T00:38:09;39.65;35.93;42.67;;
71034;Laerm;58847;52.378;4.740;2022-08-05T00:38:19;38.54;35.25;42.99;;
71034;Laerm;58847;52.378;4.740;2022-08-05T00:38:30;38.12;35.08;42.95;;
71034;Laerm;58847;52.378;4.740;2022-08-05T00:38:40;38.59;35.39;44.85;;
71034;Laerm;58847;52.378;4.740;2022-08-05T00:38:51;38.92;35.10;44.19;;
71034;Laerm;58847;52.378;4.740;2022-08-05T00:39:02;38.45;34.81;42.70;;
71034;Laerm;58847;52.378;4.740;2022-08-05T00:39:12;38.32;35.46;43.18;;
71034;Laerm;58847;52.378;4.740;2022-08-05T00:39:23;37.89;34.66;42.26;;
71034;Laerm;58847;52.378;4.740;2022-08-05T00:39:34;37.53;34.82;40.64;;
71034;Laerm;58847;52.378;4.740;2022-08-05T00:39:44;40.60;36.05;45.01;;
71034;Laerm;58847;52.378;4.740;2022-08-05T00:39:55;38.85;35.44;43.17;;
71034;Laerm;58847;52.378;4.740;2022-08-05T00:40:05;39.11;35.89;44.04;;
71034;Laerm;58847;52.378;4.740;2022-08-05T00:40:16;38.95;35.56;42.28;;
71034;Laerm;58847;52.378;4.740;2022-08-05T00:40:27;36.50;33.95;40.22;;
71034;Laerm;58847;52.378;4.740;2022-08-05T00:40:53;37.83;34.66;43.23;;
71034;Laerm;58847;52.378;4.740;2022-08-05T00:41:04;36.64;33.38;40.74;;
71034;Laerm;58847;52.378;4.740;2022-08-05T00:41:27;37.13;34.13;42.83;;
71034;Laerm;58847;52.378;4.740;2022-08-05T00:41:38;37.65;34.40;41.43;;
71034;Laerm;58847;52.378;4.740;2022-08-05T00:41:48;38.32;35.16;48.37;;
71034;Laerm;58847;52.378;4.740;2022-08-05T00:41:59;37.91;35.25;41.10;;
71034;Laerm;58847;52.378;4.740;2022-08-05T00:42:10;37.95;35.05;41.09;;
71034;Laerm;58847;52.378;4.740;2022-08-05T00:42:34;38.14;33.70;42.17;;
71034;Laerm;58847;52.378;4.740;2022-08-05T00:42:44;37.62;34.21;42.32;;
71034;Laerm;58847;52.378;4.740;2022-08-05T00:42:58;36.25;32.91;40.83;;
71034;Laerm;58847;52.378;4.740;2022-08-05T00:43:09;36.81;34.16;40.44;;
71034;Laerm;58847;52.378;4.740;2022-08-05T00:43:19;38.08;34.88;41.13;;
71034;Laerm;58847;52.378;4.740;2022-08-05T00:43:30;37.78;34.40;41.24;;
71034;Laerm;58847;52.378;4.740;2022-08-05T00:43:41;38.70;36.29;41.29;;
71034;Laerm;58847;52.378;4.740;2022-08-05T00:43:51;39.66;36.99;45.28;;
71034;Laerm;58847;52.378;4.740;2022-08-05T00:44:02;38.43;35.87;40.78;;
71034;Laerm;58847;52.378;4.740;2022-08-05T00:44:12;37.94;35.46;39.98;;
71034;Laerm;58847;52.378;4.740;2022-08-05T00:44:23;37.47;34.88;39.61;;
71034;Laerm;58847;52.378;4.740;2022-08-05T00:44:33;38.36;34.59;45.91;;
71034;Laerm;58847;52.378;4.740;2022-08-05T00:44:44;37.31;35.26;42.19;;
71034;Laerm;58847;52.378;4.740;2022-08-05T00:44:54;36.71;34.35;42.69;;
71034;Laerm;58847;52.378;4.740;2022-08-05T00:45:06;36.12;33.14;38.58;;
71034;Laerm;58847;52.378;4.740;2022-08-05T00:45:17;35.73;33.34;38.17;;
71034;Laerm;58847;52.378;4.740;2022-08-05T00:45:28;36.13;34.13;42.47;;
71034;Laerm;58847;52.378;4.740;2022-08-05T00:45:39;36.45;34.00;39.87;;
71034;Laerm;58847;52.378;4.740;2022-08-05T00:45:50;36.61;34.34;41.40;;
71034;Laerm;58847;52.378;4.740;2022-08-05T00:46:02;37.35;34.43;40.84;;
71034;Laerm;58847;52.378;4.740;2022-08-05T00:46:12;37.22;34.70;42.37;;
71034;Laerm;58847;52.378;4.740;2022-08-05T00:46:23;39.40;35.02;54.24;;
71034;Laerm;58847;52.378;4.740;2022-08-05T00:46:34;37.09;34.78;41.45;;
71034;Laerm;58847;52.378;4.740;2022-08-05T00:46:44;36.69;34.23;41.80;;
71034;Laerm;58847;52.378;4.740;2022-08-05T00:46:55;37.11;34.59;41.70;;
71034;Laerm;58847;52.378;4.740;2022-08-05T00:47:05;36.55;34.09;39.45;;
71034;Laerm;58847;52.378;4.740;2022-08-05T00:47:16;36.41;33.67;40.95;;
71034;Laerm;58847;52.378;4.740;2022-08-05T00:47:26;36.63;33.66;41.56;;
71034;Laerm;58847;52.378;4.740;2022-08-05T00:47:37;37.04;34.30;45.97;;
71034;Laerm;58847;52.378;4.740;2022-08-05T00:47:48;37.19;34.57;40.16;;
71034;Laerm;58847;52.378;4.740;2022-08-05T00:47:58;36.55;34.34;39.14;;
71034;Laerm;58847;52.378;4.740;2022-08-05T00:48:12;36.43;33.97;39.59;;
71034;Laerm;58847;52.378;4.740;2022-08-05T00:48:24;42.45;36.15;48.56;;
71034;Laerm;58847;52.378;4.740;2022-08-05T00:48:34;37.61;35.26;41.40;;
71034;Laerm;58847;52.378;4.740;2022-08-05T00:48:45;38.41;35.48;41.13;;
71034;Laerm;58847;52.378;4.740;2022-08-05T00:48:56;42.84;39.98;45.81;;
71034;Laerm;58847;52.378;4.740;2022-08-05T00:49:07;43.03;39.60;45.40;;
71034;Laerm;58847;52.378;4.740;2022-08-05T00:49:17;39.77;37.22;41.99;;
71034;Laerm;58847;52.378;4.740;2022-08-05T00:49:30;39.39;37.82;41.57;;
71034;Laerm;58847;52.378;4.740;2022-08-05T00:49:41;39.08;36.07;42.34;;
71034;Laerm;58847;52.378;4.740;2022-08-05T00:49:51;37.55;35.45;41.48;;
71034;Laerm;58847;52.378;4.740;2022-08-05T00:50:01;39.50;36.05;41.56;;
71034;Laerm;58847;52.378;4.740;2022-08-05T00:50:12;39.21;36.74;43.09;;
71034;Laerm;58847;52.378;4.740;2022-08-05T00:50:22;37.89;35.75;40.81;;
71034;Laerm;58847;52.378;4.740;2022-08-05T00:50:32;38.04;35.82;41.95;;
71034;Laerm;58847;52.378;4.740;2022-08-05T00:50:44;37.27;35.14;41.59;;
71034;Laerm;58847;52.378;4.740;2022-08-05T00:50:54;37.85;35.91;41.59;;
71034;Laerm;58847;52.378;4.740;2022-08-05T00:51:04;37.31;35.43;39.88;;
71034;Laerm;58847;52.378;4.740;2022-08-05T00:51:15;36.89;35.02;38.91;;
71034;Laerm;58847;52.378;4.740;2022-08-05T00:51:25;36.71;34.59;40.93;;
71034;Laerm;58847;52.378;4.740;2022-08-05T00:51:35;36.18;34.24;38.41;;
71034;Laerm;58847;52.378;4.740;2022-08-05T00:51:46;35.74;33.33;39.69;;
71034;Laerm;58847;52.378;4.740;2022-08-05T00:51:56;35.69;32.96;41.69;;
71034;Laerm;58847;52.378;4.740;2022-08-05T00:52:06;35.89;33.57;40.61;;
71034;Laerm;58847;52.378;4.740;2022-08-05T00:52:16;36.02;33.84;38.60;;
71034;Laerm;58847;52.378;4.740;2022-08-05T00:52:26;36.21;33.91;39.31;;
71034;Laerm;58847;52.378;4.740;2022-08-05T00:52:37;36.07;33.25;39.95;;
71034;Laerm;58847;52.378;4.740;2022-08-05T00:52:47;36.09;32.72;41.06;;
71034;Laerm;58847;52.378;4.740;2022-08-05T00:52:57;37.45;34.91;40.22;;
71034;Laerm;58847;52.378;4.740;2022-08-05T00:53:08;38.15;35.54;40.58;;
71034;Laerm;58847;52.378;4.740;2022-08-05T00:53:19;39.34;36.06;42.95;;
71034;Laerm;58847;52.378;4.740;2022-08-05T00:53:30;37.91;34.78;41.25;;
71034;Laerm;58847;52.378;4.740;2022-08-05T00:53:40;37.19;34.14;41.17;;
71034;Laerm;58847;52.378;4.740;2022-08-05T00:53:50;36.85;33.98;40.11;;
71034;Laerm;58847;52.378;4.740;2022-08-05T00:54:01;36.61;34.22;41.74;;
71034;Laerm;58847;52.378;4.740;2022-08-05T00:54:11;37.06;34.86;39.87;;
71034;Laerm;58847;52.378;4.740;2022-08-05T00:54:22;37.41;34.33;40.73;;
71034;Laerm;58847;52.378;4.740;2022-08-05T00:54:32;36.50;33.32;39.37;;
71034;Laerm;58847;52.378;4.740;2022-08-05T00:54:42;36.46;33.85;41.12;;
71034;Laerm;58847;52.378;4.740;2022-08-05T00:54:52;35.70;32.59;40.37;;
71034;Laerm;58847;52.378;4.740;2022-08-05T00:55:03;35.29;32.65;39.78;;
71034;Laerm;58847;52.378;4.740;2022-08-05T00:55:13;34.95;31.91;38.63;;
71034;Laerm;58847;52.378;4.740;2022-08-05T00:55:23;35.11;32.33;39.08;;
71034;Laerm;58847;52.378;4.740;2022-08-05T00:55:34;35.24;32.80;40.10;;
71034;Laerm;58847;52.378;4.740;2022-08-05T00:55:44;35.41;33.20;39.52;;
71034;Laerm;58847;52.378;4.740;2022-08-05T00:55:54;35.43;32.51;38.24;;
71034;Laerm;58847;52.378;4.740;2022-08-05T00:56:04;35.70;33.62;42.32;;
71034;Laerm;58847;52.378;4.740;2022-08-05T00:56:15;35.87;33.17;40.56;;
71034;Laerm;58847;52.378;4.740;2022-08-05T00:56:26;35.70;33.53;38.65;;
71034;Laerm;58847;52.378;4.740;2022-08-05T00:56:36;35.10;32.77;37.99;;
71034;Laerm;58847;52.378;4.740;2022-08-05T00:56:46;35.31;32.53;40.88;;
71034;Laerm;58847;52.378;4.740;2022-08-05T00:56:56;35.52;33.61;38.62;;
71034;Laerm;58847;52.378;4.740;2022-08-05T00:57:07;35.33;33.10;38.32;;
71034;Laerm;58847;52.378;4.740;2022-08-05T00:57:17;35.65;33.34;44.57;;
71034;Laerm;58847;52.378;4.740;2022-08-05T00:57:27;35.87;33.50;41.13;;
71034;Laerm;58847;52.378;4.740;2022-08-05T00:57:38;36.69;33.49;39.63;;
71034;Laerm;58847;52.378;4.740;2022-08-05T00:57:48;37.33;35.22;39.82;;
71034;Laerm;58847;52.378;4.740;2022-08-05T00:57:58;37.52;35.55;40.84;;
71034;Laerm;58847;52.378;4.740;2022-08-05T00:58:09;36.80;34.64;40.82;;
71034;Laerm;58847;52.378;4.740;2022-08-05T00:58:19;37.23;34.95;40.00;;
71034;Laerm;58847;52.378;4.740;2022-08-05T00:58:30;36.92;34.34;39.65;;
71034;Laerm;58847;52.378;4.740;2022-08-05T00:58:40;37.12;34.07;41.63;;
71034;Laerm;58847;52.378;4.740;2022-08-05T00:58:51;39.17;35.80;42.84;;
71034;Laerm;58847;52.378;4.740;2022-08-05T00:59:01;37.65;34.83;40.26;;
71034;Laerm;58847;52.378;4.740;2022-08-05T00:59:11;36.89;34.23;40.72;;
71034;Laerm;58847;52.378;4.740;2022-08-05T00:59:21;37.07;35.26;42.49;;
71034;Laerm;58847;52.378;4.740;2022-08-05T00:59:31;37.41;34.72;41.90;;
71034;Laerm;58847;52.378;4.740;2022-08-05T00:59:42;36.73;34.25;39.39;;
71034;Laerm;58847;52.378;4.740;2022-08-05T00:59:52;36.71;34.31;39.23;;
71034;Laerm;58847;52.378;4.740;2022-08-05T01:00:03;36.99;33.97;41.48;;
71034;Laerm;58847;52.378;4.740;2022-08-05T01:00:14;37.13;34.82;39.23;;
71034;Laerm;58847;52.378;4.740;2022-08-05T01:00:25;37.45;35.51;39.76;;
71034;Laerm;58847;52.378;4.740;2022-08-05T01:00:35;37.68;35.61;40.26;;
71034;Laerm;58847;52.378;4.740;2022-08-05T01:00:45;37.61;35.09;39.68;;
71034;Laerm;58847;52.378;4.740;2022-08-05T01:00:56;37.90;35.95;41.29;;
71034;Laerm;58847;52.378;4.740;2022-08-05T01:01:06;38.20;35.56;41.73;;
71034;Laerm;58847;52.378;4.740;2022-08-05T01:01:18;38.04;34.96;40.68;;
71034;Laerm;58847;52.378;4.740;2022-08-05T01:01:28;37.42;35.05;39.65;;